Time;durP1;ratioP1;P1;durP2;ratioP2;P2;SDS_P1;SDS_P2;PMS_P1;PMS_P2;Temp;Humidity;BMP_temperature;BMP_pressure;BME280_temperature;BME280_humidity;BME280_pressure;Samples;Min_cycle;Max_cycle;Signal;HPM_P1;HPM_P2
2021/01/18 00:01:38;;;;;;;11.80;10.70;;;25.40;27.30;;;;;;5073765;28;20407;-69
2021/01/18 00:04:04;;;;;;;11.68;10.48;;;25.30;27.40;;;;;;5073813;28;20387;-70
2021/01/18 00:06:30;;;;;;;11.50;10.40;;;25.30;27.30;;;;;;5073603;28;20380;-68
2021/01/18 00:08:55;;;;;;;11.43;10.37;;;25.30;27.40;;;;;;5073091;28;21271;-71
2021/01/18 00:11:22;;;;;;;11.20;10.07;;;25.30;27.40;;;;;;5071634;28;20416;-70
2021/01/18 00:13:50;;;;;;;10.65;9.70;;;25.30;27.30;;;;;;5073692;28;20387;-67
2021/01/18 00:16:16;;;;;;;10.48;9.48;;;25.30;27.40;;;;;;5073482;28;20380;-69
2021/01/18 00:18:42;;;;;;;9.98;9.07;;;25.30;27.30;;;;;;5073247;28;20416;-71
2021/01/18 00:21:08;;;;;;;10.30;9.38;;;25.30;27.20;;;;;;5073418;28;20392;-60
2021/01/18 00:23:38;;;;;;;9.80;8.90;;;25.30;27.30;;;;;;5072597;28;20427;-68
2021/01/18 00:26:04;;;;;;;9.80;8.90;;;25.20;27.20;;;;;;5072904;28;20882;-71
2021/01/18 00:28:31;;;;;;;9.60;8.80;;;25.20;27.20;;;;;;5073207;28;20392;-70
2021/01/18 00:30:58;;;;;;;9.25;8.45;;;25.20;26.90;;;;;;5073068;28;20445;-71
2021/01/18 00:33:24;;;;;;;8.63;7.82;;;25.20;27.60;;;;;;5072393;28;20411;-71
2021/01/18 00:35:50;;;;;;;8.63;7.82;;;25.20;27.10;;;;;;5072793;28;20388;-71
2021/01/18 00:38:15;;;;;;;8.80;8.00;;;25.20;27.10;;;;;;5072885;28;20426;-71
2021/01/18 00:40:41;;;;;;;8.70;7.90;;;25.10;26.90;;;;;;5072711;28;20391;-72
2021/01/18 00:43:06;;;;;;;8.48;7.78;;;25.10;27.10;;;;;;5072918;28;20399;-71
2021/01/18 00:45:32;;;;;;;8.50;7.73;;;25.10;27.10;;;;;;5071102;28;20442;-71
2021/01/18 00:47:58;;;;;;;8.03;7.33;;;25.10;27.10;;;;;;5071493;28;20495;-70
2021/01/18 00:50:26;;;;;;;7.47;6.80;;;25.10;27.00;;;;;;5072729;28;20399;-68
2021/01/18 00:52:54;;;;;;;7.65;6.95;;;25.00;27.00;;;;;;5071252;28;20387;-72
2021/01/18 00:55:21;;;;;;;7.60;6.90;;;25.00;27.10;;;;;;5072272;28;20512;-71
2021/01/18 00:57:47;;;;;;;7.75;7.05;;;25.00;27.10;;;;;;5072320;28;20395;-72
2021/01/18 01:00:22;;;;;;;7.80;7.10;;;25.00;27.00;;;;;;5072634;28;20403;-71
2021/01/18 01:02:49;;;;;;;7.30;6.60;;;25.00;26.80;;;;;;5072519;28;20386;-71
2021/01/18 01:05:18;;;;;;;7.10;6.50;;;25.00;27.00;;;;;;5072505;28;20410;-70
2021/01/18 01:07:48;;;;;;;6.60;6.00;;;25.00;26.90;;;;;;5072017;28;20805;-71
2021/01/18 01:10:19;;;;;;;7.30;6.60;;;24.90;27.00;;;;;;5072380;28;20392;-71
2021/01/18 01:12:45;;;;;;;6.95;6.35;;;24.90;27.00;;;;;;5072181;28;20379;-71
2021/01/18 01:15:12;;;;;;;6.63;6.00;;;24.90;27.00;;;;;;5072376;28;20382;-72
2021/01/18 01:17:44;;;;;;;7.20;6.50;;;24.90;26.90;;;;;;5071476;28;20395;-71
2021/01/18 01:20:11;;;;;;;6.43;5.82;;;24.90;27.00;;;;;;5072339;28;20400;-69
2021/01/18 01:22:38;;;;;;;6.33;5.73;;;24.90;27.00;;;;;;5070853;28;20384;-71
2021/01/18 01:25:05;;;;;;;6.33;5.73;;;24.80;27.00;;;;;;5070928;28;20403;-68
2021/01/18 01:27:31;;;;;;;6.20;5.60;;;24.80;26.90;;;;;;5071676;28;20399;-69
2021/01/18 01:29:57;;;;;;;6.30;5.70;;;24.80;27.00;;;;;;5072161;28;20759;-70
2021/01/18 01:32:22;;;;;;;6.17;5.57;;;24.80;27.00;;;;;;5071891;28;20388;-70
2021/01/18 01:34:48;;;;;;;6.05;5.45;;;24.80;27.00;;;;;;5072251;28;20515;-72
2021/01/18 01:37:14;;;;;;;6.50;5.90;;;24.70;27.00;;;;;;5072109;28;20376;-69
2021/01/18 01:39:39;;;;;;;6.53;5.93;;;24.70;26.90;;;;;;5071447;28;20430;-71
2021/01/18 01:42:20;;;;;;;6.00;5.47;;;24.70;27.00;;;;;;5071251;28;20462;-71
2021/01/18 01:44:46;;;;;;;5.68;5.15;;;24.70;27.00;;;;;;5071896;28;20394;-71
2021/01/18 01:47:17;;;;;;;6.10;5.60;;;24.70;27.40;;;;;;5071942;28;20380;-71
2021/01/18 01:49:42;;;;;;;6.25;5.65;;;24.70;27.00;;;;;;5071347;28;20384;-72
2021/01/18 01:52:10;;;;;;;5.72;5.22;;;24.70;27.00;;;;;;5071762;28;20743;-72
2021/01/18 01:54:37;;;;;;;5.97;5.40;;;24.60;26.90;;;;;;5070470;28;20449;-71
2021/01/18 01:57:03;;;;;;;5.68;5.18;;;24.60;26.90;;;;;;5070334;28;20919;-71
2021/01/18 01:59:29;;;;;;;6.18;5.57;;;24.60;27.00;;;;;;5070993;28;20418;-71
2021/01/18 02:01:55;;;;;;;5.50;5.00;;;24.60;26.90;;;;;;5071708;28;20384;-72
2021/01/18 02:04:22;;;;;;;5.05;4.55;;;24.60;27.00;;;;;;5070170;28;20396;-72
2021/01/18 02:06:47;;;;;;;5.70;5.20;;;24.50;26.90;;;;;;5071582;28;20394;-71
2021/01/18 02:09:13;;;;;;;5.60;5.10;;;24.50;26.90;;;;;;5071536;28;20396;-72
2021/01/18 02:11:39;;;;;;;5.40;4.90;;;24.50;26.90;;;;;;5069627;28;20388;-71
2021/01/18 02:14:22;;;;;;;5.80;5.20;;;24.50;27.00;;;;;;5071518;28;20404;-71
2021/01/18 02:16:50;;;;;;;5.20;4.78;;;24.50;27.00;;;;;;5070236;28;20741;-71
2021/01/18 02:19:53;;;;;;;5.55;5.05;;;24.50;27.00;;;;;;5071417;28;20449;-72
2021/01/18 02:22:48;;;;;;;4.97;4.47;;;24.40;26.90;;;;;;5071386;28;20388;-71
2021/01/18 02:25:33;;;;;;;5.80;5.20;;;24.40;26.90;;;;;;5051774;28;20403;-71
2021/01/18 02:28:34;;;;;;;5.40;4.90;;;24.40;27.00;;;;;;5071413;28;20368;-72
2021/01/18 02:31:08;;;;;;;4.88;4.40;;;24.40;26.80;;;;;;5067319;28;20426;-70
2021/01/18 02:33:43;;;;;;;5.32;4.82;;;24.30;27.00;;;;;;5070550;28;20899;-69
2021/01/18 02:36:30;;;;;;;5.60;5.00;;;24.30;26.90;;;;;;5071246;28;20375;-71
2021/01/18 02:39:18;;;;;;;5.00;4.60;;;24.30;26.90;;;;;;5070989;28;20772;-72
2021/01/18 02:42:05;;;;;;;5.05;4.63;;;24.30;26.90;;;;;;5070672;28;20392;-71
2021/01/18 02:44:34;;;;;;;4.95;4.50;;;24.30;26.90;;;;;;5071193;28;20395;-71
2021/01/18 02:47:01;;;;;;;4.78;4.38;;;24.20;27.00;;;;;;5071111;28;20376;-72
2021/01/18 02:49:27;;;;;;;4.70;4.30;;;24.20;27.00;;;;;;5071006;28;20384;-71
2021/01/18 02:52:03;;;;;;;4.97;4.57;;;24.20;27.00;;;;;;5069784;28;20392;-71
2021/01/18 02:54:29;;;;;;;5.00;4.50;;;24.10;27.00;;;;;;5071072;28;20471;-71
2021/01/18 02:56:57;;;;;;;4.80;4.40;;;24.20;27.00;;;;;;5071022;28;20470;-71
2021/01/18 02:59:23;;;;;;;4.75;4.30;;;24.10;27.00;;;;;;5070877;28;20457;-63
2021/01/18 03:01:51;;;;;;;4.43;4.03;;;24.10;27.00;;;;;;5070648;28;20395;-72
2021/01/18 03:04:19;;;;;;;4.90;4.40;;;24.00;27.00;;;;;;5069684;28;20399;-72
2021/01/18 03:07:05;;;;;;;4.70;4.30;;;24.00;26.90;;;;;;5070888;28;20419;-72
2021/01/18 03:09:43;;;;;;;4.18;3.83;;;24.00;27.00;;;;;;5070377;28;20471;-71
2021/01/18 03:12:11;;;;;;;4.50;4.10;;;24.00;27.00;;;;;;5069543;28;20445;-71
2021/01/18 03:14:49;;;;;;;4.82;4.32;;;24.00;27.00;;;;;;5071012;28;20384;-59
2021/01/18 03:17:21;;;;;;;4.10;3.80;;;24.00;27.00;;;;;;5074544;28;20955;-71
2021/01/18 03:19:47;;;;;;;4.50;4.10;;;23.90;27.00;;;;;;5072379;28;20451;-72
2021/01/18 03:22:30;;;;;;;4.35;3.95;;;23.90;26.90;;;;;;5073456;28;20469;-71
2021/01/18 03:25:06;;;;;;;4.10;3.70;;;23.90;27.00;;;;;;5074487;28;20402;-72
2021/01/18 03:27:53;;;;;;;4.47;4.07;;;23.90;27.00;;;;;;5073794;28;20383;-71
2021/01/18 03:30:22;;;;;;;4.05;3.65;;;23.90;27.00;;;;;;5074577;28;20396;-72
2021/01/18 03:32:55;;;;;;;4.18;3.78;;;23.90;27.00;;;;;;5073178;28;20764;-72
2021/01/18 03:35:22;;;;;;;4.30;3.90;;;23.90;27.00;;;;;;5073155;28;20399;-70
2021/01/18 03:37:53;;;;;;;4.00;3.60;;;23.80;27.00;;;;;;5073659;28;20443;-72
2021/01/18 03:40:19;;;;;;;4.10;3.70;;;23.80;26.90;;;;;;5074146;28;20388;-72
2021/01/18 03:42:58;;;;;;;4.28;3.88;;;23.80;27.00;;;;;;5072417;28;20379;-72
2021/01/18 03:45:26;;;;;;;4.03;3.63;;;23.80;27.00;;;;;;5074085;28;20747;-71
2021/01/18 03:47:51;;;;;;;3.80;3.40;;;23.70;27.00;;;;;;5072515;28;20395;-71
2021/01/18 03:50:17;;;;;;;3.90;3.50;;;23.70;27.10;;;;;;5073694;28;20383;-72
2021/01/18 03:52:50;;;;;;;3.80;3.50;;;23.70;27.10;;;;;;5073941;28;20388;-71
2021/01/18 03:55:16;;;;;;;3.50;3.20;;;23.70;27.10;;;;;;5072822;28;20395;-72
2021/01/18 03:57:45;;;;;;;3.40;3.10;;;23.60;27.10;;;;;;5073447;28;20423;-72
2021/01/18 04:00:12;;;;;;;3.30;3.00;;;23.60;27.10;;;;;;5073787;28;20392;-72
2021/01/18 04:02:39;;;;;;;3.67;3.15;;;23.60;27.20;;;;;;5072478;28;20455;-72
2021/01/18 04:05:05;;;;;;;3.10;2.75;;;23.60;27.20;;;;;;5073819;28;20392;-71
2021/01/18 04:07:31;;;;;;;3.20;2.90;;;23.50;27.20;;;;;;5073210;28;20391;-61
2021/01/18 04:09:56;;;;;;;3.30;2.87;;;23.50;27.30;;;;;;5073725;28;20794;-71
2021/01/18 04:12:22;;;;;;;2.97;2.65;;;23.50;27.50;;;;;;5046292;28;20934;-70
2021/01/18 04:14:49;;;;;;;3.50;3.20;;;23.40;27.50;;;;;;5073561;28;20391;-70
2021/01/18 04:17:16;;;;;;;3.03;2.72;;;23.40;27.90;;;;;;5072310;28;20392;-70
2021/01/18 04:19:41;;;;;;;3.67;2.77;;;23.40;28.10;;;;;;5071551;28;20408;-71
2021/01/18 04:22:07;;;;;;;2.67;2.40;;;23.40;28.20;;;;;;5072367;28;20405;-73
2021/01/18 04:24:36;;;;;;;4.90;4.03;;;23.30;28.30;;;;;;5073264;28;20392;-62
2021/01/18 04:27:03;;;;;;;3.80;3.00;;;23.30;28.70;;;;;;5070826;28;20384;-70
2021/01/18 04:29:29;;;;;;;3.10;2.80;;;23.30;28.80;;;;;;5072860;28;20420;-67
2021/01/18 04:31:55;;;;;;;4.80;2.80;;;23.30;28.80;;;;;;5072916;28;20498;-70
2021/01/18 04:34:20;;;;;;;3.30;2.70;;;23.30;29.00;;;;;;5072922;28;20411;-65
2021/01/18 04:36:46;;;;;;;4.03;2.30;;;23.30;29.00;;;;;;5071667;28;20391;-62
2021/01/18 04:39:12;;;;;;;2.77;2.43;;;23.30;29.00;;;;;;5060879;28;20417;-68
2021/01/18 04:41:42;;;;;;;3.20;2.40;;;23.30;29.30;;;;;;5052659;28;20382;-73
2021/01/18 04:44:09;;;;;;;2.70;2.20;;;23.30;29.40;;;;;;5052858;28;20396;-71
2021/01/18 04:46:40;;;;;;;3.08;2.30;;;23.30;29.60;;;;;;5052795;28;20400;-70
2021/01/18 04:49:07;;;;;;;2.92;2.20;;;23.20;29.50;;;;;;5051685;28;20406;-70
2021/01/18 04:51:54;;;;;;;3.33;2.33;;;23.20;29.60;;;;;;5052437;28;20754;-64
2021/01/18 04:54:25;;;;;;;2.67;2.03;;;23.30;29.90;;;;;;5052216;28;20455;-71
2021/01/18 04:57:13;;;;;;;4.00;2.05;;;23.40;30.30;;;;;;5052460;28;20416;-60
2021/01/18 04:59:43;;;;;;;3.80;2.00;;;23.30;30.00;;;;;;5051961;28;20413;-71
2021/01/18 05:02:22;;;;;;;3.10;1.88;;;23.30;30.00;;;;;;5051439;28;20386;-71
2021/01/18 05:04:50;;;;;;;2.00;1.80;;;23.20;30.00;;;;;;5051242;28;20401;-71
2021/01/18 05:07:34;;;;;;;2.00;1.80;;;23.20;30.00;;;;;;5052648;28;20377;-71
2021/01/18 05:10:13;;;;;;;2.65;1.80;;;23.10;29.80;;;;;;5052608;28;20377;-69
2021/01/18 05:12:41;;;;;;;2.50;1.67;;;23.10;29.80;;;;;;5052402;28;20382;-71
2021/01/18 05:15:11;;;;;;;3.45;1.77;;;23.00;29.70;;;;;;5052334;28;20385;-71
2021/01/18 05:17:45;;;;;;;1.65;1.45;;;23.00;29.70;;;;;;5051888;28;20382;-70
2021/01/18 05:20:12;;;;;;;2.30;1.50;;;23.00;29.70;;;;;;5052404;28;20393;-70
2021/01/18 05:22:42;;;;;;;2.13;1.60;;;22.90;29.60;;;;;;5052277;28;20925;-71
2021/01/18 05:25:09;;;;;;;2.25;1.50;;;23.00;29.70;;;;;;5052257;28;20398;-73
2021/01/18 05:28:02;;;;;;;2.63;1.60;;;22.90;29.50;;;;;;5051642;28;20477;-61
2021/01/18 05:30:30;;;;;;;1.90;1.55;;;22.80;29.30;;;;;;5051918;28;20394;-69
2021/01/18 05:33:09;;;;;;;1.90;1.52;;;22.80;29.20;;;;;;5050209;28;20398;-70
2021/01/18 05:35:38;;;;;;;3.00;1.67;;;22.80;28.80;;;;;;5051424;28;20397;-63
2021/01/18 05:38:10;;;;;;;4.10;1.80;;;22.70;28.90;;;;;;5051399;28;20398;-70
2021/01/18 05:40:46;;;;;;;4.97;1.90;;;22.70;28.90;;;;;;5051570;28;20400;-71
2021/01/18 05:43:16;;;;;;;3.25;1.70;;;22.70;28.90;;;;;;5051832;28;20388;-71
2021/01/18 05:45:43;;;;;;;4.07;1.83;;;22.70;28.90;;;;;;5050130;28;20399;-70
2021/01/18 05:48:10;;;;;;;4.72;2.10;;;22.70;29.00;;;;;;5051836;28;20477;-68
2021/01/18 05:50:37;;;;;;;4.78;1.90;;;22.70;29.50;;;;;;5051667;28;20409;-71
2021/01/18 05:53:29;;;;;;;5.60;2.13;;;22.60;29.40;;;;;;5051194;28;20394;-71
2021/01/18 05:55:55;;;;;;;4.88;2.10;;;22.60;29.60;;;;;;5049054;28;20420;-71
2021/01/18 05:58:32;;;;;;;5.03;1.90;;;22.60;29.60;;;;;;5050667;28;20440;-70
2021/01/18 06:01:00;;;;;;;6.40;2.00;;;22.60;29.50;;;;;;5050620;28;20439;-73
2021/01/18 06:03:30;;;;;;;4.93;1.88;;;22.60;29.60;;;;;;5050715;28;20480;-71
2021/01/18 06:05:56;;;;;;;4.22;1.70;;;22.60;29.60;;;;;;5050277;28;20388;-71
2021/01/18 06:08:24;;;;;;;4.85;1.88;;;22.60;29.60;;;;;;5050012;28;20822;-62
2021/01/18 06:10:51;;;;;;;4.85;1.70;;;22.50;29.50;;;;;;5051521;28;20477;-71
2021/01/18 06:13:29;;;;;;;5.10;1.90;;;22.50;29.50;;;;;;5050228;28;20391;-72
2021/01/18 06:16:06;;;;;;;5.90;1.80;;;22.50;29.40;;;;;;5049708;28;20492;-71
2021/01/18 06:18:33;;;;;;;3.63;1.60;;;22.50;29.50;;;;;;5051310;28;21016;-70
2021/01/18 06:21:07;;;;;;;3.60;1.45;;;22.50;29.40;;;;;;5051518;28;20389;-69
2021/01/18 06:23:33;;;;;;;4.47;1.60;;;22.40;29.40;;;;;;5051180;28;20386;-70
2021/01/18 06:26:00;;;;;;;2.63;1.40;;;22.40;29.40;;;;;;5049982;28;20886;-70
2021/01/18 06:28:31;;;;;;;3.13;1.30;;;22.40;29.30;;;;;;5051367;28;20923;-71
2021/01/18 06:31:06;;;;;;;2.35;1.20;;;22.40;29.30;;;;;;5049979;28;20495;-71
2021/01/18 06:33:48;;;;;;;4.03;1.50;;;22.30;29.30;;;;;;5050443;28;20406;-71
2021/01/18 06:36:19;;;;;;;3.90;1.42;;;22.30;29.30;;;;;;5051465;28;20392;-70
2021/01/18 06:39:00;;;;;;;2.22;1.13;;;22.30;29.30;;;;;;5051202;28;20405;-71
2021/01/18 06:41:34;;;;;;;1.65;1.20;;;22.30;29.30;;;;;;5050069;28;20393;-65
2021/01/18 06:44:00;;;;;;;2.78;1.38;;;22.30;29.20;;;;;;5051029;28;20377;-69
2021/01/18 06:46:37;;;;;;;2.13;1.20;;;22.20;29.20;;;;;;5045267;28;20389;-67
2021/01/18 06:49:06;;;;;;;1.38;1.10;;;22.20;29.20;;;;;;5047204;28;20388;-71
2021/01/18 06:51:32;;;;;;;1.88;1.40;;;22.20;29.20;;;;;;5049588;28;20428;-71
2021/01/18 06:53:59;;;;;;;1.77;1.27;;;22.20;29.20;;;;;;5052976;28;20472;-71
2021/01/18 06:56:28;;;;;;;2.40;1.20;;;22.20;29.20;;;;;;5053151;28;20428;-60
2021/01/18 06:59:27;;;;;;;2.60;1.30;;;22.20;29.20;;;;;;5054459;28;20475;-71
2021/01/18 07:02:13;;;;;;;2.53;1.00;;;22.10;29.10;;;;;;5054537;28;20385;-71
2021/01/18 07:04:45;;;;;;;1.95;1.10;;;22.10;29.10;;;;;;5053430;28;20447;-71
2021/01/18 07:07:24;;;;;;;1.98;1.08;;;22.00;29.10;;;;;;5054910;28;20385;-71
2021/01/18 07:10:10;;;;;;;1.50;1.02;;;22.00;29.10;;;;;;5054379;28;20432;-70
2021/01/18 07:12:36;;;;;;;1.75;1.15;;;22.00;29.10;;;;;;5054228;28;20373;-71
2021/01/18 07:15:10;;;;;;;1.52;0.90;;;22.00;29.10;;;;;;5054509;28;20939;-70
2021/01/18 07:17:55;;;;;;;1.58;0.93;;;22.00;29.10;;;;;;5054417;28;20861;-70
2021/01/18 07:20:28;;;;;;;1.50;0.82;;;22.00;29.10;;;;;;5054607;28;20397;-70
2021/01/18 07:23:23;;;;;;;1.60;0.95;;;21.90;29.10;;;;;;5054173;28;20432;-70
2021/01/18 07:26:04;;;;;;;1.48;0.90;;;21.90;29.10;;;;;;5068873;28;20381;-71
2021/01/18 07:28:32;;;;;;;1.45;0.85;;;21.90;29.00;;;;;;5054452;28;20386;-70
2021/01/18 07:30:58;;;;;;;1.25;0.80;;;21.90;29.10;;;;;;5054548;28;20504;-70
2021/01/18 07:33:24;;;;;;;1.70;0.80;;;21.80;29.00;;;;;;5054280;28;20476;-71
2021/01/18 07:35:50;;;;;;;1.37;0.90;;;21.80;29.10;;;;;;5051556;28;20405;-71
2021/01/18 07:38:20;;;;;;;1.25;0.90;;;21.80;29.10;;;;;;5053685;28;20405;-70
2021/01/18 07:41:08;;;;;;;1.60;0.90;;;21.80;29.10;;;;;;5054279;28;20412;-71
2021/01/18 07:43:44;;;;;;;1.15;0.80;;;21.80;29.10;;;;;;5054165;28;20381;-71
2021/01/18 07:46:25;;;;;;;1.10;0.70;;;21.70;29.00;;;;;;5052797;28;20886;-71
2021/01/18 07:48:55;;;;;;;1.13;0.80;;;21.70;29.00;;;;;;5053759;28;20420;-71
2021/01/18 07:51:23;;;;;;;1.20;0.90;;;21.70;29.00;;;;;;5054262;28;20885;-71
2021/01/18 07:53:49;;;;;;;1.50;0.80;;;21.70;29.10;;;;;;5053523;28;20393;-71
2021/01/18 07:56:24;;;;;;;1.50;0.80;;;21.60;29.50;;;;;;5054122;28;20911;-70
2021/01/18 07:59:07;;;;;;;1.17;0.77;;;21.60;29.00;;;;;;5053833;28;20973;-71
2021/01/18 08:01:37;;;;;;;0.90;0.70;;;21.60;29.00;;;;;;5052308;28;20818;-71
2021/01/18 08:04:23;;;;;;;1.25;0.70;;;21.60;29.00;;;;;;5053675;28;20401;-70
2021/01/18 08:07:04;;;;;;;0.80;0.63;;;21.60;29.00;;;;;;5053825;28;20385;-70
2021/01/18 08:09:30;;;;;;;1.33;0.70;;;21.60;29.00;;;;;;5053850;28;20381;-70
2021/01/18 08:12:30;;;;;;;1.05;0.65;;;21.60;29.00;;;;;;5053271;28;20754;-71
2021/01/18 08:14:57;;;;;;;0.90;0.70;;;21.50;29.00;;;;;;5053757;28;20405;-71
2021/01/18 08:17:23;;;;;;;0.95;0.68;;;21.50;29.50;;;;;;5053662;28;20378;-69
2021/01/18 08:20:16;;;;;;;1.02;0.70;;;21.50;29.00;;;;;;5052972;28;20467;-71
2021/01/18 08:22:42;;;;;;;1.20;0.80;;;21.50;29.10;;;;;;5068911;28;20394;-70
2021/01/18 08:25:08;;;;;;;0.95;0.55;;;21.50;29.10;;;;;;5053534;28;20381;-71
2021/01/18 08:27:47;;;;;;;1.23;0.90;;;21.50;29.10;;;;;;5053375;28;20389;-68
2021/01/18 08:30:21;;;;;;;1.08;0.80;;;21.40;29.10;;;;;;5052319;28;20389;-71
2021/01/18 08:33:17;;;;;;;1.00;0.70;;;21.40;29.00;;;;;;5053206;28;20396;-71
2021/01/18 08:35:49;;;;;;;1.00;0.70;;;21.40;29.10;;;;;;5052298;28;20397;-71
2021/01/18 08:38:30;;;;;;;1.27;0.77;;;21.40;29.10;;;;;;5053227;28;20953;-71
2021/01/18 08:41:09;;;;;;;1.15;0.70;;;21.30;29.00;;;;;;5053172;28;20878;-70
2021/01/18 08:43:45;;;;;;;1.00;0.70;;;21.40;28.90;;;;;;5052993;28;20389;-69
2021/01/18 08:46:32;;;;;;;0.80;0.70;;;21.50;28.90;;;;;;5068503;28;20983;-58
2021/01/18 08:49:20;;;;;;;1.10;0.70;;;21.60;28.80;;;;;;5048846;28;20766;-71
2021/01/18 08:51:47;;;;;;;0.95;0.50;;;21.60;28.60;;;;;;5052404;28;20385;-71
2021/01/18 08:54:38;;;;;;;0.80;0.50;;;21.70;28.60;;;;;;5053045;28;20385;-71
2021/01/18 08:57:23;;;;;;;0.95;0.60;;;21.80;28.50;;;;;;5052879;28;20397;-71
2021/01/18 09:00:01;;;;;;;0.82;0.60;;;21.80;28.50;;;;;;5052487;28;20516;-69
2021/01/18 09:02:26;;;;;;;0.90;0.60;;;21.80;28.90;;;;;;5052766;28;20448;-70
2021/01/18 09:04:52;;;;;;;0.98;0.60;;;21.80;28.40;;;;;;5052646;28;20400;-69
2021/01/18 09:07:18;;;;;;;0.90;0.60;;;21.80;28.40;;;;;;5052796;28;20386;-70
2021/01/18 09:09:44;;;;;;;0.70;0.50;;;21.80;28.80;;;;;;5052503;28;20382;-71
2021/01/18 09:12:10;;;;;;;0.73;0.50;;;21.90;28.40;;;;;;5052021;28;20389;-70
2021/01/18 09:14:36;;;;;;;0.77;0.50;;;21.90;28.20;;;;;;5052090;28;20397;-72
2021/01/18 09:17:06;;;;;;;0.73;0.57;;;21.90;28.30;;;;;;5052567;28;20865;-71
2021/01/18 09:19:32;;;;;;;1.05;0.60;;;21.90;28.20;;;;;;5052400;28;20456;-69
2021/01/18 09:22:00;;;;;;;0.77;0.60;;;21.90;28.20;;;;;;5051910;28;20480;-71
2021/01/18 09:24:26;;;;;;;0.63;0.50;;;21.90;28.20;;;;;;5052411;28;20390;-70
2021/01/18 09:26:53;;;;;;;1.10;0.70;;;22.00;28.20;;;;;;5052626;28;20720;-61
2021/01/18 09:29:22;;;;;;;0.70;0.50;;;21.90;28.20;;;;;;5050948;28;20393;-65
2021/01/18 09:31:49;;;;;;;0.70;0.50;;;21.90;28.20;;;;;;5051667;28;20401;-71
2021/01/18 09:34:15;;;;;;;0.90;0.60;;;22.00;28.20;;;;;;5052036;28;20889;-69
2021/01/18 09:36:42;;;;;;;0.80;0.50;;;22.00;28.30;;;;;;5052260;28;20474;-71
2021/01/18 09:39:18;;;;;;;0.75;0.50;;;21.90;28.20;;;;;;5051994;28;20897;-71
2021/01/18 09:41:44;;;;;;;0.88;0.50;;;21.90;28.30;;;;;;5051709;28;20459;-66
2021/01/18 09:44:12;;;;;;;0.70;0.50;;;22.00;28.20;;;;;;5048359;28;20485;-71
2021/01/18 09:46:41;;;;;;;0.70;0.50;;;21.90;28.20;;;;;;5051194;28;20388;-71
2021/01/18 09:49:06;;;;;;;0.88;0.50;;;22.00;28.70;;;;;;5050698;28;20394;-70
2021/01/18 09:51:32;;;;;;;0.93;0.50;;;21.90;28.30;;;;;;5051912;28;20439;-71
2021/01/18 09:53:59;;;;;;;0.90;0.45;;;22.00;28.30;;;;;;5050042;28;20401;-71
2021/01/18 09:56:27;;;;;;;0.60;0.50;;;22.00;28.30;;;;;;5051795;28;20382;-70
2021/01/18 09:58:58;;;;;;;0.75;0.50;;;22.00;28.20;;;;;;5051649;28;20715;-72
2021/01/18 10:01:26;;;;;;;0.70;0.50;;;22.00;28.20;;;;;;5051732;28;20382;-71
2021/01/18 10:04:00;;;;;;;0.60;0.40;;;21.90;28.20;;;;;;5050846;28;20464;-70
2021/01/18 10:06:30;;;;;;;0.80;0.50;;;22.00;28.30;;;;;;5051685;28;20390;-71
2021/01/18 10:09:12;;;;;;;0.90;0.60;;;22.00;28.30;;;;;;5051513;28;20385;-67
2021/01/18 10:11:46;;;;;;;0.77;0.57;;;21.90;28.60;;;;;;5047740;28;20405;-71
2021/01/18 10:14:19;;;;;;;1.00;0.60;;;21.90;28.30;;;;;;5049738;28;20472;-65
2021/01/18 10:17:03;;;;;;;2.00;1.20;;;22.00;28.80;;;;;;5050167;28;20396;-71
2021/01/18 10:19:30;;;;;;;1.70;0.80;;;22.20;29.00;;;;;;5048651;28;20418;-71
2021/01/18 10:21:57;;;;;;;1.73;0.90;;;22.20;28.80;;;;;;5050757;28;20385;-71
2021/01/18 10:24:30;;;;;;;1.30;0.80;;;22.10;28.90;;;;;;5051333;28;20404;-70
2021/01/18 10:27:15;;;;;;;1.55;0.75;;;22.00;29.30;;;;;;5051307;28;20380;-71
2021/01/18 10:29:41;;;;;;;1.23;0.80;;;22.00;28.90;;;;;;5051608;28;20436;-60
2021/01/18 10:32:08;;;;;;;1.25;0.80;;;22.00;28.90;;;;;;5050998;28;20377;-70
2021/01/18 10:34:34;;;;;;;1.30;0.90;;;21.90;29.20;;;;;;5051239;28;20420;-71
2021/01/18 10:37:29;;;;;;;1.33;0.80;;;21.90;29.20;;;;;;5051418;28;20439;-71
2021/01/18 10:40:03;;;;;;;1.20;0.80;;;21.90;29.30;;;;;;5045979;28;20417;-59
2021/01/18 10:42:29;;;;;;;1.13;0.70;;;21.90;29.20;;;;;;5044603;28;20412;-72
2021/01/18 10:44:56;;;;;;;0.90;0.60;;;21.80;29.00;;;;;;5033909;28;20456;-72
2021/01/18 10:47:27;;;;;;;1.17;0.60;;;21.80;29.00;;;;;;5031293;28;20387;-72
2021/01/18 10:49:57;;;;;;;0.82;0.60;;;21.80;28.90;;;;;;5030799;28;20391;-71
2021/01/18 10:52:34;;;;;;;0.80;0.60;;;21.80;28.90;;;;;;5030806;28;20436;-70
2021/01/18 10:55:01;;;;;;;1.13;0.70;;;21.80;28.70;;;;;;5030639;28;20859;-68
2021/01/18 10:57:27;;;;;;;1.15;0.65;;;21.80;28.70;;;;;;5030350;28;20394;-70
2021/01/18 11:00:15;;;;;;;0.95;0.60;;;21.80;28.70;;;;;;5029343;28;20473;-69
2021/01/18 11:02:43;;;;;;;0.80;0.60;;;21.80;28.50;;;;;;5029596;28;20441;-71
2021/01/18 11:05:10;;;;;;;1.15;0.57;;;21.80;28.70;;;;;;5031165;28;20441;-71
2021/01/18 11:07:37;;;;;;;0.88;0.50;;;21.80;28.50;;;;;;5031224;28;20414;-58
2021/01/18 11:10:06;;;;;;;0.85;0.57;;;21.80;28.40;;;;;;5038198;28;20810;-59
2021/01/18 11:12:38;;;;;;;0.80;0.50;;;21.80;28.40;;;;;;5051208;28;20416;-59
2021/01/18 11:15:07;;;;;;;1.17;0.63;;;21.80;28.40;;;;;;5051221;28;20377;-71
2021/01/18 11:17:33;;;;;;;1.35;0.63;;;21.80;28.40;;;;;;5049518;28;20389;-67
2021/01/18 11:19:59;;;;;;;1.17;0.70;;;21.70;28.50;;;;;;5050387;28;20458;-71
2021/01/18 11:22:24;;;;;;;0.90;0.55;;;21.80;28.40;;;;;;5051182;28;20401;-70
2021/01/18 11:24:50;;;;;;;0.80;0.50;;;21.70;28.40;;;;;;5050935;28;20769;-68
2021/01/18 11:27:16;;;;;;;0.77;0.50;;;21.70;28.60;;;;;;5050746;28;20842;-71
2021/01/18 11:29:42;;;;;;;0.90;0.52;;;21.70;28.60;;;;;;5050434;28;20393;-70
2021/01/18 11:32:08;;;;;;;0.80;0.50;;;21.70;28.40;;;;;;5049198;28;20385;-67
2021/01/18 11:34:33;;;;;;;0.80;0.50;;;21.70;28.40;;;;;;5049356;28;20401;-70
2021/01/18 11:37:06;;;;;;;0.70;0.43;;;21.70;28.40;;;;;;5051860;28;20486;-69
2021/01/18 11:39:33;;;;;;;0.73;0.50;;;21.70;28.30;;;;;;5053164;28;20413;-70
2021/01/18 11:41:59;;;;;;;0.75;0.40;;;21.70;28.40;;;;;;5052740;28;20416;-70
2021/01/18 11:44:25;;;;;;;0.82;0.50;;;21.70;28.40;;;;;;5053062;28;20394;-70
2021/01/18 11:46:58;;;;;;;0.80;0.50;;;21.70;28.40;;;;;;5054303;28;20903;-70
2021/01/18 11:49:24;;;;;;;0.80;0.43;;;21.70;28.50;;;;;;5054108;28;20874;-63
2021/01/18 11:51:50;;;;;;;1.00;0.60;;;21.70;28.40;;;;;;5053176;28;20386;-71
2021/01/18 11:54:16;;;;;;;0.65;0.50;;;21.60;28.40;;;;;;5053650;28;20435;-71
2021/01/18 11:56:42;;;;;;;0.70;0.40;;;21.60;28.40;;;;;;5053945;28;20389;-70
2021/01/18 11:59:08;;;;;;;0.65;0.40;;;21.70;28.40;;;;;;5053860;28;20418;-71
2021/01/18 12:01:43;;;;;;;0.60;0.38;;;21.60;28.40;;;;;;5053965;28;21023;-71
2021/01/18 12:04:09;;;;;;;0.55;0.30;;;21.60;28.40;;;;;;5053603;28;20382;-71
2021/01/18 12:06:36;;;;;;;0.75;0.40;;;21.60;28.40;;;;;;5052453;28;20459;-70
2021/01/18 12:09:03;;;;;;;0.50;0.40;;;21.60;28.30;;;;;;5053804;28;20773;-70
2021/01/18 12:11:29;;;;;;;0.70;0.50;;;21.60;28.40;;;;;;5053604;28;20768;-71
2021/01/18 12:13:55;;;;;;;0.80;0.50;;;21.60;28.40;;;;;;5053478;28;20394;-69
2021/01/18 12:16:27;;;;;;;0.70;0.40;;;21.60;28.40;;;;;;5053849;28;20382;-71
2021/01/18 12:18:53;;;;;;;0.50;0.40;;;21.60;28.50;;;;;;5053518;28;20409;-70
2021/01/18 12:21:20;;;;;;;0.80;0.40;;;21.60;28.40;;;;;;5053604;28;20405;-71
2021/01/18 12:23:47;;;;;;;0.60;0.40;;;21.60;28.40;;;;;;5053432;28;20394;-71
2021/01/18 12:26:16;;;;;;;0.60;0.45;;;21.60;28.40;;;;;;5053054;28;20411;-70
2021/01/18 12:28:42;;;;;;;0.60;0.47;;;21.60;28.40;;;;;;5053407;28;20389;-70
2021/01/18 12:31:08;;;;;;;0.80;0.50;;;21.60;28.50;;;;;;5053406;28;20392;-71
2021/01/18 12:33:34;;;;;;;0.90;0.40;;;21.50;28.40;;;;;;5053105;28;20406;-71
2021/01/18 12:35:59;;;;;;;0.50;0.30;;;21.50;28.40;;;;;;5051694;28;20393;-71
2021/01/18 12:38:25;;;;;;;0.70;0.40;;;21.50;28.40;;;;;;5053112;28;20492;-71
2021/01/18 12:40:51;;;;;;;0.67;0.40;;;21.50;28.40;;;;;;5053259;28;20397;-71
2021/01/18 12:43:17;;;;;;;1.00;0.40;;;21.50;28.50;;;;;;5053212;28;20381;-71
2021/01/18 12:45:47;;;;;;;0.70;0.40;;;21.50;28.40;;;;;;5053140;28;20389;-71
2021/01/18 12:48:13;;;;;;;0.80;0.40;;;21.50;28.40;;;;;;5051586;28;20427;-66
2021/01/18 12:50:42;;;;;;;0.70;0.50;;;21.50;28.40;;;;;;5053082;28;20385;-64
2021/01/18 12:53:43;;;;;;;0.57;0.40;;;21.50;28.40;;;;;;5053041;28;20425;-70
2021/01/18 12:56:02;;;;;;;0.50;0.40;;;21.50;28.40;;;;;;5052441;28;21043;-67
2021/01/18 12:58:27;;;;;;;0.73;0.40;;;21.50;28.40;;;;;;5051456;28;20408;-70
2021/01/18 13:00:53;;;;;;;0.70;0.40;;;21.50;28.50;;;;;;5053252;28;20718;-71
2021/01/18 13:03:18;;;;;;;0.60;0.40;;;21.50;28.40;;;;;;5052795;28;20392;-71
2021/01/18 13:05:44;;;;;;;0.77;0.40;;;21.40;28.40;;;;;;5052670;28;20401;-71